Jussara, Brazil
Current Conditions -  °F | °C
As of 3:22 PM on Thursday 30 Oct 2014 (Local Time) from SBGO Reporting Station
Scattered Clouds Scattered Clouds  
Wind Chill: 79°   Ceiling: Unl
Heat Index: 80°   Visibility: 6mi
Dew Point: 59°   Wind: 23mph
Humidity: 51%   Direction: 310°NW
Pressure: 29.88"   Gusts: 40mph
Location:  15.87°S, 50.87°W
Report Text: SBGO 301722Z 31020G35KT 9999 SCT035 FEW040TCU 26/15 Q1012
Loading
Personal Weather Stations






























Interactive Weather Map
Tropical Storm Tracking
New forecast layout! Learn more

10-Day Weather Forecast

Advertisements
Track Severe Weather on mobile